sensor_id;sensor_type;location;lat;lon;timestamp;P1;durP1;ratioP1;P2;durP2;ratioP2
76098;SDS011;64828;49.956;8.636;2023-04-02T00:00:03;3.35;;;1.70;;
76098;SDS011;64828;49.956;8.636;2023-04-02T00:00:25;3.95;;;1.90;;
76098;SDS011;64828;49.956;8.636;2023-04-02T00:01:16;3.92;;;1.80;;
76098;SDS011;64828;49.956;8.636;2023-04-02T00:01:48;3.28;;;1.80;;
76098;SDS011;64828;49.956;8.636;2023-04-02T00:03:22;4.93;;;2.47;;
76098;SDS011;64828;49.956;8.636;2023-04-02T00:04:18;7.18;;;3.42;;
76098;SDS011;64828;49.956;8.636;2023-04-02T00:04:36;6.82;;;3.47;;
76098;SDS011;64828;49.956;8.636;2023-04-02T00:05:37;6.38;;;2.92;;
76098;SDS011;64828;49.956;8.636;2023-04-02T00:06:09;3.90;;;1.98;;
76098;SDS011;64828;49.956;8.636;2023-04-02T00:06:40;5.15;;;2.15;;
76098;SDS011;64828;49.956;8.636;2023-04-02T00:07:23;4.13;;;1.80;;
76098;SDS011;64828;49.956;8.636;2023-04-02T00:07:48;4.82;;;2.00;;
76098;SDS011;64828;49.956;8.636;2023-04-02T00:08:17;3.05;;;1.73;;
76098;SDS011;64828;49.956;8.636;2023-04-02T00:08:37;3.13;;;1.70;;
76098;SDS011;64828;49.956;8.636;2023-04-02T00:09:29;2.33;;;1.67;;
76098;SDS011;64828;49.956;8.636;2023-04-02T00:09:49;3.05;;;1.88;;
76098;SDS011;64828;49.956;8.636;2023-04-02T00:10:23;3.30;;;1.92;;
76098;SDS011;64828;49.956;8.636;2023-04-02T00:10:49;3.67;;;1.90;;
76098;SDS011;64828;49.956;8.636;2023-04-02T00:11:26;3.40;;;1.85;;
76098;SDS011;64828;49.956;8.636;2023-04-02T00:11:49;2.72;;;1.73;;
76098;SDS011;64828;49.956;8.636;2023-04-02T00:12:17;2.78;;;1.70;;
76098;SDS011;64828;49.956;8.636;2023-04-02T00:12:33;2.90;;;1.88;;
76098;SDS011;64828;49.956;8.636;2023-04-02T00:13:33;2.85;;;1.80;;
76098;SDS011;64828;49.956;8.636;2023-04-02T00:13:48;3.75;;;2.20;;
76098;SDS011;64828;49.956;8.636;2023-04-02T00:14:17;2.90;;;1.90;;
76098;SDS011;64828;49.956;8.636;2023-04-02T00:14:45;4.72;;;2.10;;
76098;SDS011;64828;49.956;8.636;2023-04-02T00:15:10;3.20;;;2.15;;
76098;SDS011;64828;49.956;8.636;2023-04-02T00:15:27;3.03;;;2.08;;
76098;SDS011;64828;49.956;8.636;2023-04-02T00:15:45;4.53;;;2.30;;
76098;SDS011;64828;49.956;8.636;2023-04-02T00:16:05;3.42;;;2.10;;
76098;SDS011;64828;49.956;8.636;2023-04-02T00:16:25;3.22;;;2.22;;
76098;SDS011;64828;49.956;8.636;2023-04-02T00:16:41;3.63;;;2.30;;
76098;SDS011;64828;49.956;8.636;2023-04-02T00:16:58;3.85;;;2.20;;
76098;SDS011;64828;49.956;8.636;2023-04-02T00:17:18;3.80;;;2.20;;
76098;SDS011;64828;49.956;8.636;2023-04-02T00:17:38;3.67;;;2.13;;
76098;SDS011;64828;49.956;8.636;2023-04-02T00:17:54;3.73;;;2.10;;
76098;SDS011;64828;49.956;8.636;2023-04-02T00:18:20;3.20;;;2.10;;
76098;SDS011;64828;49.956;8.636;2023-04-02T00:18:37;2.58;;;2.08;;
76098;SDS011;64828;49.956;8.636;2023-04-02T00:19:03;3.33;;;2.22;;
76098;SDS011;64828;49.956;8.636;2023-04-02T00:19:30;3.40;;;2.20;;
76098;SDS011;64828;49.956;8.636;2023-04-02T00:19:56;4.85;;;2.50;;
76098;SDS011;64828;49.956;8.636;2023-04-02T00:20:20;5.60;;;2.40;;
76098;SDS011;64828;49.956;8.636;2023-04-02T00:20:39;4.57;;;2.35;;
76098;SDS011;64828;49.956;8.636;2023-04-02T00:21:20;3.10;;;2.20;;
76098;SDS011;64828;49.956;8.636;2023-04-02T00:21:40;3.83;;;2.10;;
76098;SDS011;64828;49.956;8.636;2023-04-02T00:21:59;3.75;;;2.42;;
76098;SDS011;64828;49.956;8.636;2023-04-02T00:22:26;3.92;;;2.50;;
76098;SDS011;64828;49.956;8.636;2023-04-02T00:22:46;3.05;;;2.22;;
76098;SDS011;64828;49.956;8.636;2023-04-02T00:23:03;3.72;;;2.22;;
76098;SDS011;64828;49.956;8.636;2023-04-02T00:23:20;4.05;;;2.60;;
76098;SDS011;64828;49.956;8.636;2023-04-02T00:23:37;3.38;;;2.53;;
76098;SDS011;64828;49.956;8.636;2023-04-02T00:23:58;3.90;;;2.40;;
76098;SDS011;64828;49.956;8.636;2023-04-02T00:24:17;4.15;;;2.40;;
76098;SDS011;64828;49.956;8.636;2023-04-02T00:24:37;3.75;;;2.60;;
76098;SDS011;64828;49.956;8.636;2023-04-02T00:24:54;3.85;;;2.65;;
76098;SDS011;64828;49.956;8.636;2023-04-02T00:25:11;4.43;;;2.60;;
76098;SDS011;64828;49.956;8.636;2023-04-02T00:25:28;4.30;;;2.50;;
76098;SDS011;64828;49.956;8.636;2023-04-02T00:25:49;3.65;;;2.60;;
76098;SDS011;64828;49.956;8.636;2023-04-02T00:26:07;3.90;;;2.60;;
76098;SDS011;64828;49.956;8.636;2023-04-02T00:26:51;3.97;;;2.50;;
76098;SDS011;64828;49.956;8.636;2023-04-02T00:27:12;3.78;;;2.70;;
76098;SDS011;64828;49.956;8.636;2023-04-02T00:27:30;3.43;;;2.80;;
76098;SDS011;64828;49.956;8.636;2023-04-02T00:27:46;3.40;;;2.63;;
76098;SDS011;64828;49.956;8.636;2023-04-02T00:28:02;3.08;;;2.55;;
76098;SDS011;64828;49.956;8.636;2023-04-02T00:28:19;4.20;;;2.60;;
76098;SDS011;64828;49.956;8.636;2023-04-02T00:28:37;4.35;;;2.67;;
76098;SDS011;64828;49.956;8.636;2023-04-02T00:28:53;4.30;;;2.83;;
76098;SDS011;64828;49.956;8.636;2023-04-02T00:29:10;3.85;;;2.88;;
76098;SDS011;64828;49.956;8.636;2023-04-02T00:29:28;3.90;;;2.70;;
76098;SDS011;64828;49.956;8.636;2023-04-02T00:29:48;4.30;;;2.73;;
76098;SDS011;64828;49.956;8.636;2023-04-02T00:30:07;4.47;;;2.85;;
76098;SDS011;64828;49.956;8.636;2023-04-02T00:30:27;3.80;;;2.97;;
76098;SDS011;64828;49.956;8.636;2023-04-02T00:31:03;4.97;;;2.80;;
76098;SDS011;64828;49.956;8.636;2023-04-02T00:31:19;4.32;;;2.97;;
76098;SDS011;64828;49.956;8.636;2023-04-02T00:31:37;4.88;;;3.10;;
76098;SDS011;64828;49.956;8.636;2023-04-02T00:31:57;5.00;;;3.17;;
76098;SDS011;64828;49.956;8.636;2023-04-02T00:32:47;4.13;;;2.90;;
76098;SDS011;64828;49.956;8.636;2023-04-02T00:32:56;5.75;;;3.15;;
76098;SDS011;64828;49.956;8.636;2023-04-02T00:33:16;5.03;;;3.03;;
76098;SDS011;64828;49.956;8.636;2023-04-02T00:33:36;4.43;;;2.70;;
76098;SDS011;64828;49.956;8.636;2023-04-02T00:33:52;4.60;;;2.97;;
76098;SDS011;64828;49.956;8.636;2023-04-02T00:34:11;4.10;;;2.95;;
76098;SDS011;64828;49.956;8.636;2023-04-02T00:34:36;4.95;;;3.15;;
76098;SDS011;64828;49.956;8.636;2023-04-02T00:34:52;4.20;;;3.03;;
76098;SDS011;64828;49.956;8.636;2023-04-02T00:35:17;4.80;;;3.10;;
76098;SDS011;64828;49.956;8.636;2023-04-02T00:35:43;5.30;;;3.08;;
76098;SDS011;64828;49.956;8.636;2023-04-02T00:35:59;4.57;;;3.17;;
76098;SDS011;64828;49.956;8.636;2023-04-02T00:36:21;5.00;;;3.15;;
76098;SDS011;64828;49.956;8.636;2023-04-02T00:36:43;5.20;;;3.47;;
76098;SDS011;64828;49.956;8.636;2023-04-02T00:37:03;4.88;;;3.25;;
76098;SDS011;64828;49.956;8.636;2023-04-02T00:37:20;5.30;;;3.20;;
76098;SDS011;64828;49.956;8.636;2023-04-02T00:37:41;5.45;;;3.30;;
76098;SDS011;64828;49.956;8.636;2023-04-02T00:37:58;5.18;;;3.20;;
76098;SDS011;64828;49.956;8.636;2023-04-02T00:38:17;4.72;;;3.17;;
76098;SDS011;64828;49.956;8.636;2023-04-02T00:38:39;4.57;;;3.20;;
76098;SDS011;64828;49.956;8.636;2023-04-02T00:38:58;4.93;;;3.45;;
76098;SDS011;64828;49.956;8.636;2023-04-02T00:39:23;4.80;;;3.50;;
76098;SDS011;64828;49.956;8.636;2023-04-02T00:39:42;5.22;;;3.40;;
76098;SDS011;64828;49.956;8.636;2023-04-02T00:39:59;5.85;;;3.53;;
76098;SDS011;64828;49.956;8.636;2023-04-02T00:40:28;5.78;;;3.58;;
76098;SDS011;64828;49.956;8.636;2023-04-02T00:40:45;5.65;;;3.17;;
76098;SDS011;64828;49.956;8.636;2023-04-02T00:41:02;5.27;;;3.30;;
76098;SDS011;64828;49.956;8.636;2023-04-02T00:41:24;4.90;;;3.50;;
76098;SDS011;64828;49.956;8.636;2023-04-02T00:41:44;4.80;;;3.45;;
76098;SDS011;64828;49.956;8.636;2023-04-02T00:42:00;5.47;;;3.50;;
76098;SDS011;64828;49.956;8.636;2023-04-02T00:42:20;5.38;;;3.50;;
76098;SDS011;64828;49.956;8.636;2023-04-02T00:42:39;5.00;;;3.47;;
76098;SDS011;64828;49.956;8.636;2023-04-02T00:42:55;5.22;;;3.60;;
76098;SDS011;64828;49.956;8.636;2023-04-02T00:43:15;5.07;;;3.70;;
76098;SDS011;64828;49.956;8.636;2023-04-02T00:43:32;5.22;;;3.60;;
76098;SDS011;64828;49.956;8.636;2023-04-02T00:43:52;4.22;;;3.45;;
76098;SDS011;64828;49.956;8.636;2023-04-02T00:44:10;4.38;;;3.38;;
76098;SDS011;64828;49.956;8.636;2023-04-02T00:44:33;5.43;;;3.35;;
76098;SDS011;64828;49.956;8.636;2023-04-02T00:44:58;4.57;;;3.22;;
76098;SDS011;64828;49.956;8.636;2023-04-02T00:45:23;4.65;;;3.60;;
76098;SDS011;64828;49.956;8.636;2023-04-02T00:45:48;5.13;;;3.50;;
76098;SDS011;64828;49.956;8.636;2023-04-02T00:46:16;5.50;;;3.70;;
76098;SDS011;64828;49.956;8.636;2023-04-02T00:46:39;5.55;;;3.78;;
76098;SDS011;64828;49.956;8.636;2023-04-02T00:47:16;5.05;;;3.55;;
76098;SDS011;64828;49.956;8.636;2023-04-02T00:47:36;4.47;;;3.50;;
76098;SDS011;64828;49.956;8.636;2023-04-02T00:47:55;4.80;;;3.42;;
76098;SDS011;64828;49.956;8.636;2023-04-02T00:48:18;5.85;;;3.40;;
76098;SDS011;64828;49.956;8.636;2023-04-02T00:48:53;5.10;;;3.67;;
76098;SDS011;64828;49.956;8.636;2023-04-02T00:49:21;5.45;;;3.38;;
76098;SDS011;64828;49.956;8.636;2023-04-02T00:49:49;5.85;;;3.53;;
76098;SDS011;64828;49.956;8.636;2023-04-02T00:50:17;4.55;;;3.50;;
76098;SDS011;64828;49.956;8.636;2023-04-02T00:50:54;5.53;;;3.67;;
76098;SDS011;64828;49.956;8.636;2023-04-02T00:51:37;5.10;;;3.58;;
76098;SDS011;64828;49.956;8.636;2023-04-02T00:52:36;5.47;;;3.60;;
76098;SDS011;64828;49.956;8.636;2023-04-02T00:52:53;5.75;;;3.70;;
76098;SDS011;64828;49.956;8.636;2023-04-02T00:53:21;5.32;;;3.50;;
76098;SDS011;64828;49.956;8.636;2023-04-02T00:53:43;5.72;;;3.58;;
76098;SDS011;64828;49.956;8.636;2023-04-02T00:54:03;6.47;;;3.60;;
76098;SDS011;64828;49.956;8.636;2023-04-02T00:54:24;5.53;;;3.80;;
76098;SDS011;64828;49.956;8.636;2023-04-02T00:54:52;5.32;;;3.70;;
76098;SDS011;64828;49.956;8.636;2023-04-02T00:55:40;6.72;;;4.07;;
76098;SDS011;64828;49.956;8.636;2023-04-02T00:55:56;5.45;;;3.60;;
76098;SDS011;64828;49.956;8.636;2023-04-02T00:56:18;5.30;;;3.80;;
76098;SDS011;64828;49.956;8.636;2023-04-02T00:56:56;5.35;;;3.50;;
76098;SDS011;64828;49.956;8.636;2023-04-02T00:57:14;5.15;;;3.53;;
76098;SDS011;64828;49.956;8.636;2023-04-02T00:57:43;5.43;;;3.60;;
76098;SDS011;64828;49.956;8.636;2023-04-02T00:58:00;5.28;;;3.45;;
76098;SDS011;64828;49.956;8.636;2023-04-02T00:58:22;5.10;;;3.47;;
76098;SDS011;64828;49.956;8.636;2023-04-02T00:58:49;6.38;;;3.45;;
76098;SDS011;64828;49.956;8.636;2023-04-02T00:59:15;4.95;;;3.13;;
76098;SDS011;64828;49.956;8.636;2023-04-02T00:59:42;5.53;;;3.42;;
76098;SDS011;64828;49.956;8.636;2023-04-02T01:00:47;4.60;;;3.28;;
76098;SDS011;64828;49.956;8.636;2023-04-02T01:01:13;4.63;;;3.28;;
76098;SDS011;64828;49.956;8.636;2023-04-02T01:01:34;4.80;;;3.40;;
76098;SDS011;64828;49.956;8.636;2023-04-02T01:01:58;5.18;;;3.50;;
76098;SDS011;64828;49.956;8.636;2023-04-02T01:02:36;5.47;;;3.30;;
76098;SDS011;64828;49.956;8.636;2023-04-02T01:03:13;6.38;;;3.28;;
76098;SDS011;64828;49.956;8.636;2023-04-02T01:03:57;4.75;;;3.33;;
76098;SDS011;64828;49.956;8.636;2023-04-02T01:04:25;5.10;;;3.40;;
76098;SDS011;64828;49.956;8.636;2023-04-02T01:04:52;5.28;;;3.63;;
76098;SDS011;64828;49.956;8.636;2023-04-02T01:05:34;5.40;;;3.50;;
76098;SDS011;64828;49.956;8.636;2023-04-02T01:06:05;5.80;;;3.40;;
76098;SDS011;64828;49.956;8.636;2023-04-02T01:06:32;5.70;;;3.33;;
76098;SDS011;64828;49.956;8.636;2023-04-02T01:06:51;4.55;;;3.20;;
76098;SDS011;64828;49.956;8.636;2023-04-02T01:07:09;3.73;;;3.10;;
76098;SDS011;64828;49.956;8.636;2023-04-02T01:09:27;4.55;;;3.40;;
76098;SDS011;64828;49.956;8.636;2023-04-02T01:15:17;4.60;;;3.40;;
76098;SDS011;64828;49.956;8.636;2023-04-02T01:15:59;5.13;;;3.72;;
76098;SDS011;64828;49.956;8.636;2023-04-02T01:20:59;4.70;;;3.42;;
76098;SDS011;64828;49.956;8.636;2023-04-02T01:23:31;5.00;;;3.30;;
76098;SDS011;64828;49.956;8.636;2023-04-02T01:24:12;5.20;;;3.30;;
76098;SDS011;64828;49.956;8.636;2023-04-02T01:24:29;4.85;;;3.35;;
76098;SDS011;64828;49.956;8.636;2023-04-02T01:24:48;5.55;;;3.30;;
76098;SDS011;64828;49.956;8.636;2023-04-02T01:25:04;5.40;;;3.30;;
76098;SDS011;64828;49.956;8.636;2023-04-02T01:25:22;5.25;;;3.30;;
76098;SDS011;64828;49.956;8.636;2023-04-02T01:27:12;4.68;;;3.30;;
76098;SDS011;64828;49.956;8.636;2023-04-02T01:27:38;5.72;;;3.55;;
76098;SDS011;64828;49.956;8.636;2023-04-02T01:28:15;5.35;;;3.50;;
76098;SDS011;64828;49.956;8.636;2023-04-02T01:29:30;5.65;;;3.47;;
76098;SDS011;64828;49.956;8.636;2023-04-02T01:29:52;4.75;;;3.20;;
76098;SDS011;64828;49.956;8.636;2023-04-02T01:30:12;6.15;;;3.40;;
76098;SDS011;64828;49.956;8.636;2023-04-02T01:30:30;5.70;;;3.30;;
76098;SDS011;64828;49.956;8.636;2023-04-02T01:30:53;4.57;;;3.25;;
76098;SDS011;64828;49.956;8.636;2023-04-02T01:31:11;4.97;;;3.60;;
76098;SDS011;64828;49.956;8.636;2023-04-02T01:31:29;4.72;;;3.72;;
76098;SDS011;64828;49.956;8.636;2023-04-02T01:31:47;4.50;;;3.30;;
76098;SDS011;64828;49.956;8.636;2023-04-02T01:32:06;5.00;;;3.40;;
76098;SDS011;64828;49.956;8.636;2023-04-02T01:32:27;4.97;;;3.22;;
76098;SDS011;64828;49.956;8.636;2023-04-02T01:32:45;5.07;;;3.22;;
76098;SDS011;64828;49.956;8.636;2023-04-02T01:33:02;4.55;;;3.20;;
76098;SDS011;64828;49.956;8.636;2023-04-02T01:33:20;5.53;;;3.45;;
76098;SDS011;64828;49.956;8.636;2023-04-02T01:33:39;5.90;;;3.40;;
76098;SDS011;64828;49.956;8.636;2023-04-02T01:33:56;6.15;;;3.65;;
76098;SDS011;64828;49.956;8.636;2023-04-02T01:34:15;5.28;;;3.85;;
76098;SDS011;64828;49.956;8.636;2023-04-02T01:34:35;6.10;;;3.55;;
76098;SDS011;64828;49.956;8.636;2023-04-02T01:34:52;6.15;;;3.33;;
76098;SDS011;64828;49.956;8.636;2023-04-02T01:35:09;4.63;;;3.30;;
76098;SDS011;64828;49.956;8.636;2023-04-02T01:35:26;5.07;;;3.30;;
76098;SDS011;64828;49.956;8.636;2023-04-02T01:35:55;5.05;;;3.47;;
76098;SDS011;64828;49.956;8.636;2023-04-02T01:37:00;5.90;;;3.63;;
76098;SDS011;64828;49.956;8.636;2023-04-02T01:38:00;5.00;;;3.70;;
76098;SDS011;64828;49.956;8.636;2023-04-02T01:38:42;4.82;;;3.13;;
76098;SDS011;64828;49.956;8.636;2023-04-02T01:41:36;5.03;;;3.30;;
76098;SDS011;64828;49.956;8.636;2023-04-02T01:43:32;6.13;;;3.10;;
76098;SDS011;64828;49.956;8.636;2023-04-02T01:44:06;4.25;;;3.28;;
76098;SDS011;64828;49.956;8.636;2023-04-02T01:44:28;5.07;;;3.40;;
76098;SDS011;64828;49.956;8.636;2023-04-02T01:45:09;6.57;;;3.67;;
76098;SDS011;64828;49.956;8.636;2023-04-02T01:45:28;4.72;;;3.30;;
76098;SDS011;64828;49.956;8.636;2023-04-02T01:45:44;4.93;;;3.30;;
76098;SDS011;64828;49.956;8.636;2023-04-02T01:46:04;5.35;;;3.30;;
76098;SDS011;64828;49.956;8.636;2023-04-02T01:46:40;5.28;;;3.30;;
76098;SDS011;64828;49.956;8.636;2023-04-02T01:46:57;4.15;;;3.00;;
76098;SDS011;64828;49.956;8.636;2023-04-02T01:47:15;4.55;;;3.15;;
76098;SDS011;64828;49.956;8.636;2023-04-02T01:47:36;4.43;;;3.17;;
76098;SDS011;64828;49.956;8.636;2023-04-02T01:47:53;4.22;;;3.10;;
76098;SDS011;64828;49.956;8.636;2023-04-02T01:48:28;4.53;;;3.30;;
76098;SDS011;64828;49.956;8.636;2023-04-02T01:48:45;4.22;;;3.40;;
76098;SDS011;64828;49.956;8.636;2023-04-02T01:49:02;4.43;;;3.33;;
76098;SDS011;64828;49.956;8.636;2023-04-02T01:49:26;4.75;;;3.40;;
76098;SDS011;64828;49.956;8.636;2023-04-02T01:49:43;4.05;;;3.30;;
76098;SDS011;64828;49.956;8.636;2023-04-02T01:50:02;5.18;;;3.55;;
76098;SDS011;64828;49.956;8.636;2023-04-02T01:50:51;4.45;;;3.40;;
76098;SDS011;64828;49.956;8.636;2023-04-02T01:51:22;5.45;;;3.40;;
76098;SDS011;64828;49.956;8.636;2023-04-02T01:51:49;5.07;;;3.15;;
76098;SDS011;64828;49.956;8.636;2023-04-02T01:52:12;5.20;;;3.17;;
76098;SDS011;64828;49.956;8.636;2023-04-02T01:52:40;6.47;;;3.50;;
76098;SDS011;64828;49.956;8.636;2023-04-02T01:53:00;5.38;;;3.30;;
76098;SDS011;64828;49.956;8.636;2023-04-02T01:53:24;5.25;;;3.30;;
76098;SDS011;64828;49.956;8.636;2023-04-02T01:53:44;4.18;;;3.20;;
76098;SDS011;64828;49.956;8.636;2023-04-02T01:54:01;4.43;;;3.33;;
76098;SDS011;64828;49.956;8.636;2023-04-02T01:54:20;4.43;;;3.47;;
76098;SDS011;64828;49.956;8.636;2023-04-02T01:54:37;4.82;;;3.67;;
76098;SDS011;64828;49.956;8.636;2023-04-02T01:54:54;5.05;;;3.40;;
76098;SDS011;64828;49.956;8.636;2023-04-02T01:55:11;5.38;;;3.22;;
76098;SDS011;64828;49.956;8.636;2023-04-02T01:55:44;5.10;;;3.38;;
76098;SDS011;64828;49.956;8.636;2023-04-02T01:56:10;5.30;;;3.50;;
76098;SDS011;64828;49.956;8.636;2023-04-02T01:56:26;5.05;;;3.70;;
76098;SDS011;64828;49.956;8.636;2023-04-02T01:56:44;4.75;;;3.47;;
76098;SDS011;64828;49.956;8.636;2023-04-02T01:57:03;6.13;;;3.25;;
76098;SDS011;64828;49.956;8.636;2023-04-02T01:57:19;6.72;;;3.50;;
76098;SDS011;64828;49.956;8.636;2023-04-02T01:57:35;6.43;;;3.80;;
76098;SDS011;64828;49.956;8.636;2023-04-02T01:57:51;6.38;;;3.60;;
76098;SDS011;64828;49.956;8.636;2023-04-02T01:58:09;5.38;;;3.50;;
76098;SDS011;64828;49.956;8.636;2023-04-02T01:58:29;5.15;;;3.50;;
76098;SDS011;64828;49.956;8.636;2023-04-02T01:58:47;5.65;;;3.50;;
76098;SDS011;64828;49.956;8.636;2023-04-02T01:59:03;4.85;;;3.50;;
76098;SDS011;64828;49.956;8.636;2023-04-02T01:59:20;4.75;;;3.40;;
76098;SDS011;64828;49.956;8.636;2023-04-02T01:59:38;5.40;;;3.70;;
76098;SDS011;64828;49.956;8.636;2023-04-02T01:59:54;5.25;;;3.55;;
76098;SDS011;64828;49.956;8.636;2023-04-02T02:00:11;5.50;;;3.72;;
76098;SDS011;64828;49.956;8.636;2023-04-02T02:00:30;5.78;;;3.55;;
76098;SDS011;64828;49.956;8.636;2023-04-02T02:01:18;7.22;;;3.90;;
76098;SDS011;64828;49.956;8.636;2023-04-02T02:01:44;6.25;;;3.97;;
76098;SDS011;64828;49.956;8.636;2023-04-02T02:02:11;4.68;;;3.55;;
76098;SDS011;64828;49.956;8.636;2023-04-02T02:02:28;5.20;;;3.60;;
76098;SDS011;64828;49.956;8.636;2023-04-02T02:02:48;5.47;;;3.85;;
76098;SDS011;64828;49.956;8.636;2023-04-02T02:03:05;6.38;;;3.80;;
76098;SDS011;64828;49.956;8.636;2023-04-02T02:03:23;6.50;;;3.60;;
76098;SDS011;64828;49.956;8.636;2023-04-02T02:03:40;6.10;;;3.72;;
76098;SDS011;64828;49.956;8.636;2023-04-02T02:03:58;5.18;;;3.67;;
76098;SDS011;64828;49.956;8.636;2023-04-02T02:04:16;5.57;;;3.63;;
76098;SDS011;64828;49.956;8.636;2023-04-02T02:04:32;5.67;;;3.57;;
76098;SDS011;64828;49.956;8.636;2023-04-02T02:04:49;6.90;;;3.90;;
76098;SDS011;64828;49.956;8.636;2023-04-02T02:05:05;6.93;;;3.90;;
76098;SDS011;64828;49.956;8.636;2023-04-02T02:05:30;6.18;;;3.88;;
76098;SDS011;64828;49.956;8.636;2023-04-02T02:05:46;4.90;;;3.58;;
76098;SDS011;64828;49.956;8.636;2023-04-02T02:06:02;6.18;;;3.75;;
76098;SDS011;64828;49.956;8.636;2023-04-02T02:06:20;6.72;;;3.63;;
76098;SDS011;64828;49.956;8.636;2023-04-02T02:06:37;6.68;;;3.55;;
76098;SDS011;64828;49.956;8.636;2023-04-02T02:06:54;5.38;;;3.40;;
76098;SDS011;64828;49.956;8.636;2023-04-02T02:07:17;4.97;;;3.50;;
76098;SDS011;64828;49.956;8.636;2023-04-02T02:07:35;5.57;;;3.72;;
76098;SDS011;64828;49.956;8.636;2023-04-02T02:07:50;5.47;;;3.73;;
76098;SDS011;64828;49.956;8.636;2023-04-02T02:08:15;5.72;;;3.80;;
76098;SDS011;64828;49.956;8.636;2023-04-02T02:08:48;5.40;;;3.70;;
76098;SDS011;64828;49.956;8.636;2023-04-02T02:09:20;5.55;;;4.00;;
76098;SDS011;64828;49.956;8.636;2023-04-02T02:09:41;6.00;;;3.70;;
76098;SDS011;64828;49.956;8.636;2023-04-02T02:09:58;5.65;;;3.75;;
76098;SDS011;64828;49.956;8.636;2023-04-02T02:10:22;6.05;;;3.83;;
76098;SDS011;64828;49.956;8.636;2023-04-02T02:10:48;6.20;;;3.70;;
76098;SDS011;64828;49.956;8.636;2023-04-02T02:11:05;5.78;;;3.70;;
76098;SDS011;64828;49.956;8.636;2023-04-02T02:11:26;6.03;;;3.80;;
76098;SDS011;64828;49.956;8.636;2023-04-02T02:11:45;6.40;;;3.90;;
76098;SDS011;64828;49.956;8.636;2023-04-02T02:12:03;5.45;;;3.70;;
76098;SDS011;64828;49.956;8.636;2023-04-02T02:12:19;5.00;;;3.50;;
76098;SDS011;64828;49.956;8.636;2023-04-02T02:12:36;5.85;;;3.70;;
76098;SDS011;64828;49.956;8.636;2023-04-02T02:12:52;6.50;;;3.90;;
76098;SDS011;64828;49.956;8.636;2023-04-02T02:13:13;6.03;;;3.97;;
76098;SDS011;64828;49.956;8.636;2023-04-02T02:13:30;5.25;;;3.80;;
76098;SDS011;64828;49.956;8.636;2023-04-02T02:13:56;5.15;;;3.65;;
76098;SDS011;64828;49.956;8.636;2023-04-02T02:14:19;5.60;;;3.50;;
76098;SDS011;64828;49.956;8.636;2023-04-02T02:14:38;5.82;;;3.47;;
76098;SDS011;64828;49.956;8.636;2023-04-02T02:15:00;5.57;;;3.90;;
76098;SDS011;64828;49.956;8.636;2023-04-02T02:15:18;5.15;;;3.75;;
76098;SDS011;64828;49.956;8.636;2023-04-02T02:15:37;5.75;;;3.97;;
76098;SDS011;64828;49.956;8.636;2023-04-02T02:15:55;6.20;;;3.97;;
76098;SDS011;64828;49.956;8.636;2023-04-02T02:16:15;6.25;;;3.60;;
76098;SDS011;64828;49.956;8.636;2023-04-02T02:16:33;6.75;;;3.83;;
76098;SDS011;64828;49.956;8.636;2023-04-02T02:16:58;6.50;;;3.97;;
76098;SDS011;64828;49.956;8.636;2023-04-02T02:17:19;5.18;;;3.72;;
76098;SDS011;64828;49.956;8.636;2023-04-02T02:17:44;6.30;;;3.70;;
76098;SDS011;64828;49.956;8.636;2023-04-02T02:18:02;6.53;;;3.88;;
76098;SDS011;64828;49.956;8.636;2023-04-02T02:18:20;5.60;;;3.78;;
76098;SDS011;64828;49.956;8.636;2023-04-02T02:18:37;7.03;;;3.85;;
76098;SDS011;64828;49.956;8.636;2023-04-02T02:18:58;6.68;;;3.65;;
76098;SDS011;64828;49.956;8.636;2023-04-02T02:19:19;6.57;;;3.60;;
76098;SDS011;64828;49.956;8.636;2023-04-02T02:19:46;6.00;;;3.83;;
76098;SDS011;64828;49.956;8.636;2023-04-02T02:20:08;5.43;;;3.92;;
76098;SDS011;64828;49.956;8.636;2023-04-02T02:20:27;5.00;;;3.80;;
76098;SDS011;64828;49.956;8.636;2023-04-02T02:20:43;5.05;;;3.63;;
76098;SDS011;64828;49.956;8.636;2023-04-02T02:21:00;5.38;;;3.63;;
76098;SDS011;64828;49.956;8.636;2023-04-02T02:21:37;5.55;;;3.53;;
76098;SDS011;64828;49.956;8.636;2023-04-02T02:22:07;7.55;;;3.67;;
76098;SDS011;64828;49.956;8.636;2023-04-02T02:22:51;5.78;;;3.65;;
76098;SDS011;64828;49.956;8.636;2023-04-02T02:23:08;5.35;;;3.80;;
76098;SDS011;64828;49.956;8.636;2023-04-02T02:23:26;6.00;;;3.90;;
76098;SDS011;64828;49.956;8.636;2023-04-02T02:23:44;5.80;;;3.90;;
76098;SDS011;64828;49.956;8.636;2023-04-02T02:23:59;5.38;;;3.80;;
76098;SDS011;64828;49.956;8.636;2023-04-02T02:24:28;6.50;;;3.50;;
76098;SDS011;64828;49.956;8.636;2023-04-02T02:24:47;6.00;;;3.97;;
76098;SDS011;64828;49.956;8.636;2023-04-02T02:25:09;5.72;;;3.80;;
76098;SDS011;64828;49.956;8.636;2023-04-02T02:25:33;8.23;;;3.88;;
76098;SDS011;64828;49.956;8.636;2023-04-02T02:25:50;10.68;;;4.28;;
76098;SDS011;64828;49.956;8.636;2023-04-02T02:26:09;7.15;;;3.90;;
76098;SDS011;64828;49.956;8.636;2023-04-02T02:26:27;5.72;;;3.67;;
76098;SDS011;64828;49.956;8.636;2023-04-02T02:26:49;5.55;;;3.72;;
76098;SDS011;64828;49.956;8.636;2023-04-02T02:27:41;5.78;;;3.70;;
76098;SDS011;64828;49.956;8.636;2023-04-02T02:28:05;5.65;;;3.67;;
76098;SDS011;64828;49.956;8.636;2023-04-02T02:28:35;5.18;;;3.50;;
76098;SDS011;64828;49.956;8.636;2023-04-02T02:28:57;5.43;;;3.72;;
76098;SDS011;64828;49.956;8.636;2023-04-02T02:29:16;6.53;;;4.10;;
76098;SDS011;64828;49.956;8.636;2023-04-02T02:29:36;4.88;;;3.55;;
76098;SDS011;64828;49.956;8.636;2023-04-02T02:29:56;5.68;;;3.58;;
76098;SDS011;64828;49.956;8.636;2023-04-02T02:30:24;6.03;;;3.60;;
76098;SDS011;64828;49.956;8.636;2023-04-02T02:31:04;6.82;;;3.65;;
76098;SDS011;64828;49.956;8.636;2023-04-02T02:31:31;5.40;;;3.90;;
76098;SDS011;64828;49.956;8.636;2023-04-02T02:31:51;5.57;;;3.75;;
76098;SDS011;64828;49.956;8.636;2023-04-02T02:32:10;6.45;;;4.03;;
76098;SDS011;64828;49.956;8.636;2023-04-02T02:32:30;5.60;;;3.72;;
76098;SDS011;64828;49.956;8.636;2023-04-02T02:32:56;5.47;;;3.60;;
76098;SDS011;64828;49.956;8.636;2023-04-02T02:33:40;5.45;;;3.47;;
76098;SDS011;64828;49.956;8.636;2023-04-02T02:34:08;6.15;;;3.38;;
76098;SDS011;64828;49.956;8.636;2023-04-02T02:34:44;5.07;;;3.70;;
76098;SDS011;64828;49.956;8.636;2023-04-02T02:35:14;5.35;;;3.70;;
76098;SDS011;64828;49.956;8.636;2023-04-02T02:36:04;5.00;;;3.58;;
76098;SDS011;64828;49.956;8.636;2023-04-02T02:36:55;6.18;;;3.80;;
76098;SDS011;64828;49.956;8.636;2023-04-02T02:37:21;5.72;;;3.70;;
76098;SDS011;64828;49.956;8.636;2023-04-02T02:37:44;5.72;;;3.35;;
76098;SDS011;64828;49.956;8.636;2023-04-02T02:38:20;6.25;;;3.70;;
76098;SDS011;64828;49.956;8.636;2023-04-02T02:39:16;5.85;;;3.45;;
76098;SDS011;64828;49.956;8.636;2023-04-02T02:39:42;6.20;;;3.65;;
76098;SDS011;64828;49.956;8.636;2023-04-02T02:40:07;5.25;;;3.75;;
76098;SDS011;64828;49.956;8.636;2023-04-02T02:40:34;5.28;;;3.70;;
76098;SDS011;64828;49.956;8.636;2023-04-02T02:40:59;5.43;;;3.60;;
76098;SDS011;64828;49.956;8.636;2023-04-02T02:41:38;4.68;;;3.60;;
76098;SDS011;64828;49.956;8.636;2023-04-02T02:42:18;4.93;;;3.58;;
76098;SDS011;64828;49.956;8.636;2023-04-02T02:43:00;5.40;;;3.30;;
76098;SDS011;64828;49.956;8.636;2023-04-02T02:43:20;5.03;;;3.30;;
76098;SDS011;64828;49.956;8.636;2023-04-02T02:43:36;5.88;;;3.35;;
76098;SDS011;64828;49.956;8.636;2023-04-02T02:44:24;5.15;;;3.50;;
76098;SDS011;64828;49.956;8.636;2023-04-02T02:44:46;5.95;;;3.30;;
76098;SDS011;64828;49.956;8.636;2023-04-02T02:45:06;5.38;;;3.40;;
76098;SDS011;64828;49.956;8.636;2023-04-02T02:45:33;5.68;;;3.70;;
76098;SDS011;64828;49.956;8.636;2023-04-02T02:45:52;5.25;;;3.65;;
76098;SDS011;64828;49.956;8.636;2023-04-02T02:46:12;5.05;;;3.33;;
76098;SDS011;64828;49.956;8.636;2023-04-02T02:46:38;4.75;;;3.28;;
76098;SDS011;64828;49.956;8.636;2023-04-02T02:47:00;4.90;;;3.53;;